Aviation Digital Data Service (ADDS)

Output produced by METARs form (1617 UTC 23 January 2019)
found at http://www.aviationweather.gov/metar/data/
 
METAR text: ENBR 231550Z 17008KT 8000 -SNRA FEW012 SCT020 BKN025 01/M02 Q1003 TEMPO 4000 -SN VV012 RMK WIND 1200FT 15019KT
Conditions at: ENBR (BERGEN/FLESLAND , NO) observed 1550 UTC 23 January 2019
Temperature: 1.0°C (34°F)
Dewpoint: -2.0°C (28°F) [RH = 80%]
Pressure (altimeter): 29.62 inches Hg (1003.0 mb)
Winds: from the S (170 degrees) at 9 MPH (8 knots; 4.1 m/s)
Visibility: 5 miles ( 8 km)
Ceiling: 2500 feet AGL
Clouds: few clouds at 1200 feet AGL
scattered clouds at 2000 feet AGL
broken clouds at 2500 feet AGL
Weather: -SN -RA  (light snow, light rain)

METAR text: ENBR 231520Z 18007KT 9999 VCSH FEW012 SCT020 BKN025 00/M02 Q1003 TEMPO 4000 -SN VV012 RMK WIND 1200FT 15016KT
Conditions at: ENBR (BERGEN/FLESLAND , NO) observed 1520 UTC 23 January 2019
Temperature: 0.0°C (32°F)
Dewpoint: -2.0°C (28°F) [RH = 86%]
Pressure (altimeter): 29.62 inches Hg (1003.0 mb)
Winds: from the S (180 degrees) at 8 MPH (7 knots; 3.6 m/s)
Visibility: 6 or more miles (10+ km)
Ceiling: 2500 feet AGL
Clouds: few clouds at 1200 feet AGL
scattered clouds at 2000 feet AGL
broken clouds at 2500 feet AGL
Weather: VCSH  (showers in vicinity)

METAR text: ENBR 231450Z 17011KT 9000 9999E -SN SCT012 BKN020 01/M03 Q1002 TEMPO 4000 -SN VV012 RMK WIND 1200FT 14015KT
Conditions at: ENBR (BERGEN/FLESLAND , NO) observed 1450 UTC 23 January 2019
Temperature: 1.0°C (34°F)
Dewpoint: -3.0°C (27°F) [RH = 75%]
Pressure (altimeter): 29.59 inches Hg (1002.0 mb)
Winds: from the S (170 degrees) at 13 MPH (11 knots; 5.7 m/s)
Visibility: 6 miles ( 9 km)
Ceiling: 2000 feet AGL
Clouds: scattered clouds at 1200 feet AGL
broken clouds at 2000 feet AGL
Weather: -SN  (light snow)

METAR text: ENBR 231420Z 17012KT 9999 -DZ SCT020 BKN035 02/M04 Q1002 TEMPO 4000 -SN VV012 RMK WIND 1200FT 15017KT
Conditions at: ENBR (BERGEN/FLESLAND , NO) observed 1420 UTC 23 January 2019
Temperature: 2.0°C (36°F)
Dewpoint: -4.0°C (25°F) [RH = 64%]
Pressure (altimeter): 29.59 inches Hg (1002.0 mb)
Winds: from the S (170 degrees) at 14 MPH (12 knots; 6.2 m/s)
Visibility: 6 or more miles (10+ km)
Ceiling: 3500 feet AGL
Clouds: scattered clouds at 2000 feet AGL
broken clouds at 3500 feet AGL
Weather: -DZ  (light drizzle)

METAR text: ENBR 231350Z 19011KT 9999 VCSH SCT025 BKN035 02/M03 Q1002 TEMPO 4000 -SN VV012 RMK WIND 1200FT 16017KT
Conditions at: ENBR (BERGEN/FLESLAND , NO) observed 1350 UTC 23 January 2019
Temperature: 2.0°C (36°F)
Dewpoint: -3.0°C (27°F) [RH = 69%]
Pressure (altimeter): 29.59 inches Hg (1002.0 mb)
Winds: from the S (190 degrees) at 13 MPH (11 knots; 5.7 m/s)
Visibility: 6 or more miles (10+ km)
Ceiling: 3500 feet AGL
Clouds: scattered clouds at 2500 feet AGL
broken clouds at 3500 feet AGL
Weather: VCSH  (showers in vicinity)

METAR text: ENBR 231320Z 18016KT 9999 VCSH FEW020 BKN030 02/M05 Q1002 NOSIG RMK WIND 1200FT 16016KT
Conditions at: ENBR (BERGEN/FLESLAND , NO) observed 1320 UTC 23 January 2019
Temperature: 2.0°C (36°F)
Dewpoint: -5.0°C (23°F) [RH = 60%]
Pressure (altimeter): 29.59 inches Hg (1002.0 mb)
Winds: from the S (180 degrees) at 18 MPH (16 knots; 8.2 m/s)
Visibility: 6 or more miles (10+ km)
Ceiling: 3000 feet AGL
Clouds: few clouds at 2000 feet AGL
broken clouds at 3000 feet AGL
Weather: VCSH  (showers in vicinity)

METAR text: ENBR 231250Z 18011KT 9999 FEW025 SCT040 BKN060 02/M05 Q1001 NOSIG RMK WIND 1200FT 17019KT
Conditions at: ENBR (BERGEN/FLESLAND , NO) observed 1250 UTC 23 January 2019
Temperature: 2.0°C (36°F)
Dewpoint: -5.0°C (23°F) [RH = 60%]
Pressure (altimeter): 29.56 inches Hg (1001.0 mb)
Winds: from the S (180 degrees) at 13 MPH (11 knots; 5.7 m/s)
Visibility: 6 or more miles (10+ km)
Ceiling: 6000 feet AGL
Clouds: few clouds at 2500 feet AGL
scattered clouds at 4000 feet AGL
broken clouds at 6000 feet AGL
Weather: no significant weather observed at this time

METAR text: ENBR 231220Z 18010KT 9999 FEW025 SCT040 BKN060 02/M05 Q1001 NOSIG RMK WIND 1200FT 17017G29KT
Conditions at: ENBR (BERGEN/FLESLAND , NO) observed 1220 UTC 23 January 2019
Temperature: 2.0°C (36°F)
Dewpoint: -5.0°C (23°F) [RH = 60%]
Pressure (altimeter): 29.56 inches Hg (1001.0 mb)
Winds: from the S (180 degrees) at 12 MPH (10 knots; 5.1 m/s)
Visibility: 6 or more miles (10+ km)
Ceiling: 6000 feet AGL
Clouds: few clouds at 2500 feet AGL
scattered clouds at 4000 feet AGL
broken clouds at 6000 feet AGL
Weather: no significant weather observed at this time

METAR text: ENBR 231150Z 20007KT 9999 FEW025 SCT040 BKN065 02/M04 Q1001 NOSIG RMK WIND 1200FT 18016KT
Conditions at: ENBR (BERGEN/FLESLAND , NO) observed 1150 UTC 23 January 2019
Temperature: 2.0°C (36°F)
Dewpoint: -4.0°C (25°F) [RH = 64%]
Pressure (altimeter): 29.56 inches Hg (1001.0 mb)
Winds: from the SSW (200 degrees) at 8 MPH (7 knots; 3.6 m/s)
Visibility: 6 or more miles (10+ km)
Ceiling: 6500 feet AGL
Clouds: few clouds at 2500 feet AGL
scattered clouds at 4000 feet AGL
broken clouds at 6500 feet AGL
Weather: no significant weather observed at this time

METAR text: ENBR 231120Z 21008KT 9999 FEW023 SCT035 BKN050 02/M03 Q1001 NOSIG RMK WIND 1200FT 17017KT
Conditions at: ENBR (BERGEN/FLESLAND , NO) observed 1120 UTC 23 January 2019
Temperature: 2.0°C (36°F)
Dewpoint: -3.0°C (27°F) [RH = 69%]
Pressure (altimeter): 29.56 inches Hg (1001.0 mb)
Winds: from the SSW (210 degrees) at 9 MPH (8 knots; 4.1 m/s)
Visibility: 6 or more miles (10+ km)
Ceiling: 5000 feet AGL
Clouds: few clouds at 2300 feet AGL
scattered clouds at 3500 feet AGL
broken clouds at 5000 feet AGL
Weather: no significant weather observed at this time

METAR text: ENBR 231050Z 18013KT 9999 VCSH SCT025 BKN040 02/M03 Q1001 NOSIG RMK WIND 1200FT 17015KT
Conditions at: ENBR (BERGEN/FLESLAND , NO) observed 1050 UTC 23 January 2019
Temperature: 2.0°C (36°F)
Dewpoint: -3.0°C (27°F) [RH = 69%]
Pressure (altimeter): 29.56 inches Hg (1001.0 mb)
Winds: from the S (180 degrees) at 15 MPH (13 knots; 6.7 m/s)
Visibility: 6 or more miles (10+ km)
Ceiling: 4000 feet AGL
Clouds: scattered clouds at 2500 feet AGL
broken clouds at 4000 feet AGL
Weather: VCSH  (showers in vicinity)

METAR text: ENBR 231020Z 19009KT 9999 VCSH SCT025 BKN035 03/M04 Q1001 NOSIG RMK WIND 1200FT 18015KT
Conditions at: ENBR (BERGEN/FLESLAND , NO) observed 1020 UTC 23 January 2019
Temperature: 3.0°C (37°F)
Dewpoint: -4.0°C (25°F) [RH = 60%]
Pressure (altimeter): 29.56 inches Hg (1001.0 mb)
Winds: from the S (190 degrees) at 10 MPH (9 knots; 4.6 m/s)
Visibility: 6 or more miles (10+ km)
Ceiling: 3500 feet AGL
Clouds: scattered clouds at 2500 feet AGL
broken clouds at 3500 feet AGL
Weather: VCSH  (showers in vicinity)

METAR text: ENBR 230950Z 19010KT 9999 FEW035 BKN050 03/M04 Q1001 NOSIG RMK WIND 1200FT 17013KT
Conditions at: ENBR (BERGEN/FLESLAND , NO) observed 0950 UTC 23 January 2019
Temperature: 3.0°C (37°F)
Dewpoint: -4.0°C (25°F) [RH = 60%]
Pressure (altimeter): 29.56 inches Hg (1001.0 mb)
Winds: from the S (190 degrees) at 12 MPH (10 knots; 5.1 m/s)
Visibility: 6 or more miles (10+ km)
Ceiling: 5000 feet AGL
Clouds: few clouds at 3500 feet AGL
broken clouds at 5000 feet AGL
Weather: no significant weather observed at this time

METAR text: ENBR 230920Z 17012KT 9999 FEW032 BKN050 03/M07 Q1001 NOSIG RMK WIND 1200FT 15017KT
Conditions at: ENBR (BERGEN/FLESLAND , NO) observed 0920 UTC 23 January 2019
Temperature: 3.0°C (37°F)
Dewpoint: -7.0°C (19°F) [RH = 48%]
Pressure (altimeter): 29.56 inches Hg (1001.0 mb)
Winds: from the S (170 degrees) at 14 MPH (12 knots; 6.2 m/s)
Visibility: 6 or more miles (10+ km)
Ceiling: 5000 feet AGL
Clouds: few clouds at 3200 feet AGL
broken clouds at 5000 feet AGL
Weather: no significant weather observed at this time

METAR text: ENBR 230850Z 17009KT 9999 FEW035 BKN050 03/M07 Q1000 NOSIG RMK WIND 1200FT 15021KT
Conditions at: ENBR (BERGEN/FLESLAND , NO) observed 0850 UTC 23 January 2019
Temperature: 3.0°C (37°F)
Dewpoint: -7.0°C (19°F) [RH = 48%]
Pressure (altimeter): 29.53 inches Hg (1000.0 mb)
Winds: from the S (170 degrees) at 10 MPH (9 knots; 4.6 m/s)
Visibility: 6 or more miles (10+ km)
Ceiling: 5000 feet AGL
Clouds: few clouds at 3500 feet AGL
broken clouds at 5000 feet AGL
Weather: no significant weather observed at this time

METAR text: ENBR 230820Z 15009KT 9999 FEW035 BKN050 03/M07 Q1000 NOSIG RMK WIND 1200FT 14018KT
Conditions at: ENBR (BERGEN/FLESLAND , NO) observed 0820 UTC 23 January 2019
Temperature: 3.0°C (37°F)
Dewpoint: -7.0°C (19°F) [RH = 48%]
Pressure (altimeter): 29.53 inches Hg (1000.0 mb)
Winds: from the SSE (150 degrees) at 10 MPH (9 knots; 4.6 m/s)
Visibility: 6 or more miles (10+ km)
Ceiling: 5000 feet AGL
Clouds: few clouds at 3500 feet AGL
broken clouds at 5000 feet AGL
Weather: no significant weather observed at this time

METAR text: ENBR 230750Z 15007KT 110V190 9999 FEW035 BKN050 03/M07 Q1000 NOSIG RMK WIND 1200FT 14018KT
Conditions at: ENBR (BERGEN/FLESLAND , NO) observed 0750 UTC 23 January 2019
Temperature: 3.0°C (37°F)
Dewpoint: -7.0°C (19°F) [RH = 48%]
Pressure (altimeter): 29.53 inches Hg (1000.0 mb)
Winds: from the SSE (150 degrees) at 8 MPH (7 knots; 3.6 m/s)
Visibility: 6 or more miles (10+ km)
Ceiling: 5000 feet AGL
Clouds: few clouds at 3500 feet AGL
broken clouds at 5000 feet AGL
Weather: no significant weather observed at this time

METAR text: ENBR 230720Z 14007KT 9999 FEW035 BKN055 03/M07 Q1000 NOSIG RMK WIND 1200FT 14019KT
Conditions at: ENBR (BERGEN/FLESLAND , NO) observed 0720 UTC 23 January 2019
Temperature: 3.0°C (37°F)
Dewpoint: -7.0°C (19°F) [RH = 48%]
Pressure (altimeter): 29.53 inches Hg (1000.0 mb)
Winds: from the SE (140 degrees) at 8 MPH (7 knots; 3.6 m/s)
Visibility: 6 or more miles (10+ km)
Ceiling: 5500 feet AGL
Clouds: few clouds at 3500 feet AGL
broken clouds at 5500 feet AGL
Weather: no significant weather observed at this time

METAR text: ENBR 230650Z 14011KT 9999 SCT035 BKN050 04/M08 Q0999 NOSIG RMK WIND 1200FT 13015KT
Conditions at: ENBR (BERGEN/FLESLAND , NO) observed 0650 UTC 23 January 2019
Temperature: 4.0°C (39°F)
Dewpoint: -8.0°C (18°F) [RH = 41%]
Pressure (altimeter): 29.50 inches Hg (999.0 mb)
Winds: from the SE (140 degrees) at 13 MPH (11 knots; 5.7 m/s)
Visibility: 6 or more miles (10+ km)
Ceiling: 5000 feet AGL
Clouds: scattered clouds at 3500 feet AGL
broken clouds at 5000 feet AGL
Weather: no significant weather observed at this time

METAR text: ENBR 230620Z 15006KT 9999 SCT035 BKN055 03/M07 Q0999 NOSIG RMK WIND 1200FT 14018KT
Conditions at: ENBR (BERGEN/FLESLAND , NO) observed 0620 UTC 23 January 2019
Temperature: 3.0°C (37°F)
Dewpoint: -7.0°C (19°F) [RH = 48%]
Pressure (altimeter): 29.50 inches Hg (999.0 mb)
Winds: from the SSE (150 degrees) at 7 MPH (6 knots; 3.1 m/s)
Visibility: 6 or more miles (10+ km)
Ceiling: 5500 feet AGL
Clouds: scattered clouds at 3500 feet AGL
broken clouds at 5500 feet AGL
Weather: no significant weather observed at this time

METAR text: ENBR 230550Z 13008KT 090V160 9999 SCT035 BKN055 04/M08 Q0999 NOSIG RMK WIND 1200FT 14020KT
Conditions at: ENBR (BERGEN/FLESLAND , NO) observed 0550 UTC 23 January 2019
Temperature: 4.0°C (39°F)
Dewpoint: -8.0°C (18°F) [RH = 41%]
Pressure (altimeter): 29.50 inches Hg (999.0 mb)
Winds: from the SE (130 degrees) at 9 MPH (8 knots; 4.1 m/s)
Visibility: 6 or more miles (10+ km)
Ceiling: 5500 feet AGL
Clouds: scattered clouds at 3500 feet AGL
broken clouds at 5500 feet AGL
Weather: no significant weather observed at this time

METAR text: ENBR 230520Z 15011KT 110V180 9999 FEW024 SCT035 BKN060 04/M07 Q0999 NOSIG RMK WIND 1200FT 13024G39KT
Conditions at: ENBR (BERGEN/FLESLAND , NO) observed 0520 UTC 23 January 2019
Temperature: 4.0°C (39°F)
Dewpoint: -7.0°C (19°F) [RH = 44%]
Pressure (altimeter): 29.50 inches Hg (999.0 mb)
Winds: from the SSE (150 degrees) at 13 MPH (11 knots; 5.7 m/s)
Visibility: 6 or more miles (10+ km)
Ceiling: 6000 feet AGL
Clouds: few clouds at 2400 feet AGL
scattered clouds at 3500 feet AGL
broken clouds at 6000 feet AGL
Weather: no significant weather observed at this time

METAR text: ENBR 230450Z 16008KT 9999 SCT040 BKN050 03/M07 Q0999 RMK WIND 1200FT 14022KT
Conditions at: ENBR (BERGEN/FLESLAND , NO) observed 0450 UTC 23 January 2019
Temperature: 3.0°C (37°F)
Dewpoint: -7.0°C (19°F) [RH = 48%]
Pressure (altimeter): 29.50 inches Hg (999.0 mb)
Winds: from the SSE (160 degrees) at 9 MPH (8 knots; 4.1 m/s)
Visibility: 6 or more miles (10+ km)
Ceiling: 5000 feet AGL
Clouds: scattered clouds at 4000 feet AGL
broken clouds at 5000 feet AGL
Weather: no significant weather observed at this time

METAR text: ENBR 230350Z 14010G20KT 9999 SCT040 BKN050 04/M08 Q0998 RMK WIND 1200FT 14022G38KT
Conditions at: ENBR (BERGEN/FLESLAND , NO) observed 0350 UTC 23 January 2019
Temperature: 4.0°C (39°F)
Dewpoint: -8.0°C (18°F) [RH = 41%]
Pressure (altimeter): 29.47 inches Hg (998.0 mb)
Winds: from the SE (140 degrees) at 12 MPH (10 knots; 5.1 m/s)
gusting to 23 MPH (20 knots; 10.3 m/s)
Visibility: 6 or more miles (10+ km)
Ceiling: 5000 feet AGL
Clouds: scattered clouds at 4000 feet AGL
broken clouds at 5000 feet AGL
Weather: no significant weather observed at this time

METAR text: ENBR 230250Z 17007KT 9999 SCT040 BKN055 03/M05 Q0998 RMK WIND 1200FT 15015KT
Conditions at: ENBR (BERGEN/FLESLAND , NO) observed 0250 UTC 23 January 2019
Temperature: 3.0°C (37°F)
Dewpoint: -5.0°C (23°F) [RH = 56%]
Pressure (altimeter): 29.47 inches Hg (998.0 mb)
Winds: from the S (170 degrees) at 8 MPH (7 knots; 3.6 m/s)
Visibility: 6 or more miles (10+ km)
Ceiling: 5500 feet AGL
Clouds: scattered clouds at 4000 feet AGL
broken clouds at 5500 feet AGL
Weather: no significant weather observed at this time

METAR text: ENBR 230150Z 15007KT 9999 FEW045 SCT051 BKN072 03/M06 Q0998 RMK WIND 1200FT 14020KT
Conditions at: ENBR (BERGEN/FLESLAND , NO) observed 0150 UTC 23 January 2019
Temperature: 3.0°C (37°F)
Dewpoint: -6.0°C (21°F) [RH = 52%]
Pressure (altimeter): 29.47 inches Hg (998.0 mb)
Winds: from the SSE (150 degrees) at 8 MPH (7 knots; 3.6 m/s)
Visibility: 6 or more miles (10+ km)
Ceiling: 7200 feet AGL
Clouds: few clouds at 4500 feet AGL
scattered clouds at 5100 feet AGL
broken clouds at 7200 feet AGL
Weather: no significant weather observed at this time

METAR text: ENBR 230050Z 13006KT CAVOK 04/M06 Q0998 RMK WIND 1200FT 14023KT
Conditions at: ENBR (BERGEN/FLESLAND , NO) observed 0050 UTC 23 January 2019
Temperature: 4.0°C (39°F)
Dewpoint: -6.0°C (21°F) [RH = 48%]
Pressure (altimeter): 29.47 inches Hg (998.0 mb)
Winds: from the SE (130 degrees) at 7 MPH (6 knots; 3.1 m/s)
Visibility: 6 or more miles (10+ km)
Ceiling: ceiling and visibility are OK
Clouds: unknown
Weather: no significant weather observed at this time

METAR text: ENBR 222350Z 15009KT CAVOK 04/M06 Q0998 RMK WIND 1200FT 14026KT
Conditions at: ENBR (BERGEN/FLESLAND , NO) observed 2350 UTC 22 January 2019
Temperature: 4.0°C (39°F)
Dewpoint: -6.0°C (21°F) [RH = 48%]
Pressure (altimeter): 29.47 inches Hg (998.0 mb)
Winds: from the SSE (150 degrees) at 10 MPH (9 knots; 4.6 m/s)
Visibility: 6 or more miles (10+ km)
Ceiling: ceiling and visibility are OK
Clouds: unknown
Weather: no significant weather observed at this time

METAR text: ENBR 222250Z 16014KT 9999 BKN050 04/M06 Q0998 RMK WIND 1200FT 14031KT
Conditions at: ENBR (BERGEN/FLESLAND , NO) observed 2250 UTC 22 January 2019
Temperature: 4.0°C (39°F)
Dewpoint: -6.0°C (21°F) [RH = 48%]
Pressure (altimeter): 29.47 inches Hg (998.0 mb)
Winds: from the SSE (160 degrees) at 16 MPH (14 knots; 7.2 m/s)
Visibility: 6 or more miles (10+ km)
Ceiling: 5000 feet AGL
Clouds: broken clouds at 5000 feet AGL
Weather: no significant weather observed at this time

METAR text: ENBR 222220Z 16009KT 9999 FEW030 SCT050 BKN065 04/M05 Q0998 RMK WIND 1200FT 14030KT
Conditions at: ENBR (BERGEN/FLESLAND , NO) observed 2220 UTC 22 January 2019
Temperature: 4.0°C (39°F)
Dewpoint: -5.0°C (23°F) [RH = 52%]
Pressure (altimeter): 29.47 inches Hg (998.0 mb)
Winds: from the SSE (160 degrees) at 10 MPH (9 knots; 4.6 m/s)
Visibility: 6 or more miles (10+ km)
Ceiling: 6500 feet AGL
Clouds: few clouds at 3000 feet AGL
scattered clouds at 5000 feet AGL
broken clouds at 6500 feet AGL
Weather: no significant weather observed at this time

METAR text: ENBR 222150Z 15010KT 9999 FEW030 SCT045 BKN055 04/M05 Q0997 RMK WIND 1200FT 14028KT
Conditions at: ENBR (BERGEN/FLESLAND , NO) observed 2150 UTC 22 January 2019
Temperature: 4.0°C (39°F)
Dewpoint: -5.0°C (23°F) [RH = 52%]
Pressure (altimeter): 29.44 inches Hg (997.0 mb)
Winds: from the SSE (150 degrees) at 12 MPH (10 knots; 5.1 m/s)
Visibility: 6 or more miles (10+ km)
Ceiling: 5500 feet AGL
Clouds: few clouds at 3000 feet AGL
scattered clouds at 4500 feet AGL
broken clouds at 5500 feet AGL
Weather: no significant weather observed at this time

METAR text: ENBR 222120Z 14011KT 9999 FEW030 SCT055 BKN065 04/M05 Q0997 RMK WIND 1200FT 13026KT
Conditions at: ENBR (BERGEN/FLESLAND , NO) observed 2120 UTC 22 January 2019
Temperature: 4.0°C (39°F)
Dewpoint: -5.0°C (23°F) [RH = 52%]
Pressure (altimeter): 29.44 inches Hg (997.0 mb)
Winds: from the SE (140 degrees) at 13 MPH (11 knots; 5.7 m/s)
Visibility: 6 or more miles (10+ km)
Ceiling: 6500 feet AGL
Clouds: few clouds at 3000 feet AGL
scattered clouds at 5500 feet AGL
broken clouds at 6500 feet AGL
Weather: no significant weather observed at this time

METAR text: ENBR 222050Z 13012KT 9999 FEW030 BKN055 04/M06 Q0997 RMK WIND 1200FT 13027KT
Conditions at: ENBR (BERGEN/FLESLAND , NO) observed 2050 UTC 22 January 2019
Temperature: 4.0°C (39°F)
Dewpoint: -6.0°C (21°F) [RH = 48%]
Pressure (altimeter): 29.44 inches Hg (997.0 mb)
Winds: from the SE (130 degrees) at 14 MPH (12 knots; 6.2 m/s)
Visibility: 6 or more miles (10+ km)
Ceiling: 5500 feet AGL
Clouds: few clouds at 3000 feet AGL
broken clouds at 5500 feet AGL
Weather: no significant weather observed at this time

METAR text: ENBR 222020Z 14013KT 9999 FEW020 SCT040 BKN050 04/M06 Q0997 NOSIG RMK WIND 1200FT 13032KT
Conditions at: ENBR (BERGEN/FLESLAND , NO) observed 2020 UTC 22 January 2019
Temperature: 4.0°C (39°F)
Dewpoint: -6.0°C (21°F) [RH = 48%]
Pressure (altimeter): 29.44 inches Hg (997.0 mb)
Winds: from the SE (140 degrees) at 15 MPH (13 knots; 6.7 m/s)
Visibility: 6 or more miles (10+ km)
Ceiling: 5000 feet AGL
Clouds: few clouds at 2000 feet AGL
scattered clouds at 4000 feet AGL
broken clouds at 5000 feet AGL
Weather: no significant weather observed at this time

METAR text: ENBR 221950Z 13014KT 9999 FEW020 SCT040 BKN050 04/M05 Q0997 NOSIG RMK WIND 1200FT 12028G38KT
Conditions at: ENBR (BERGEN/FLESLAND , NO) observed 1950 UTC 22 January 2019
Temperature: 4.0°C (39°F)
Dewpoint: -5.0°C (23°F) [RH = 52%]
Pressure (altimeter): 29.44 inches Hg (997.0 mb)
Winds: from the SE (130 degrees) at 16 MPH (14 knots; 7.2 m/s)
Visibility: 6 or more miles (10+ km)
Ceiling: 5000 feet AGL
Clouds: few clouds at 2000 feet AGL
scattered clouds at 4000 feet AGL
broken clouds at 5000 feet AGL
Weather: no significant weather observed at this time

METAR text: ENBR 221920Z 13014KT 9999 FEW020 SCT030 BKN045 04/M05 Q0997 NOSIG RMK WIND 1200FT 12029KT
Conditions at: ENBR (BERGEN/FLESLAND , NO) observed 1920 UTC 22 January 2019
Temperature: 4.0°C (39°F)
Dewpoint: -5.0°C (23°F) [RH = 52%]
Pressure (altimeter): 29.44 inches Hg (997.0 mb)
Winds: from the SE (130 degrees) at 16 MPH (14 knots; 7.2 m/s)
Visibility: 6 or more miles (10+ km)
Ceiling: 4500 feet AGL
Clouds: few clouds at 2000 feet AGL
scattered clouds at 3000 feet AGL
broken clouds at 4500 feet AGL
Weather: no significant weather observed at this time

METAR text: ENBR 221850Z 14014KT 9999 FEW020 SCT030 BKN045 04/M05 Q0997 NOSIG RMK WIND 1200FT 13032KT
Conditions at: ENBR (BERGEN/FLESLAND , NO) observed 1850 UTC 22 January 2019
Temperature: 4.0°C (39°F)
Dewpoint: -5.0°C (23°F) [RH = 52%]
Pressure (altimeter): 29.44 inches Hg (997.0 mb)
Winds: from the SE (140 degrees) at 16 MPH (14 knots; 7.2 m/s)
Visibility: 6 or more miles (10+ km)
Ceiling: 4500 feet AGL
Clouds: few clouds at 2000 feet AGL
scattered clouds at 3000 feet AGL
broken clouds at 4500 feet AGL
Weather: no significant weather observed at this time

METAR text: ENBR 221820Z 14015KT 9999 FEW020 SCT040 BKN050 04/M05 Q0997 NOSIG RMK WIND 1200FT 13033KT
Conditions at: ENBR (BERGEN/FLESLAND , NO) observed 1820 UTC 22 January 2019
Temperature: 4.0°C (39°F)
Dewpoint: -5.0°C (23°F) [RH = 52%]
Pressure (altimeter): 29.44 inches Hg (997.0 mb)
Winds: from the SE (140 degrees) at 17 MPH (15 knots; 7.7 m/s)
Visibility: 6 or more miles (10+ km)
Ceiling: 5000 feet AGL
Clouds: few clouds at 2000 feet AGL
scattered clouds at 4000 feet AGL
broken clouds at 5000 feet AGL
Weather: no significant weather observed at this time

METAR text: ENBR 221750Z 14012KT 9999 FEW020 SCT035 BKN045 04/M05 Q0997 NOSIG RMK WIND 1200FT 13029KT
Conditions at: ENBR (BERGEN/FLESLAND , NO) observed 1750 UTC 22 January 2019
Temperature: 4.0°C (39°F)
Dewpoint: -5.0°C (23°F) [RH = 52%]
Pressure (altimeter): 29.44 inches Hg (997.0 mb)
Winds: from the SE (140 degrees) at 14 MPH (12 knots; 6.2 m/s)
Visibility: 6 or more miles (10+ km)
Ceiling: 4500 feet AGL
Clouds: few clouds at 2000 feet AGL
scattered clouds at 3500 feet AGL
broken clouds at 4500 feet AGL
Weather: no significant weather observed at this time

METAR text: ENBR 221720Z 14013KT 9999 FEW018 SCT030 BKN060 04/M05 Q0997 NOSIG RMK WIND 1200FT 13030KT
Conditions at: ENBR (BERGEN/FLESLAND , NO) observed 1720 UTC 22 January 2019
Temperature: 4.0°C (39°F)
Dewpoint: -5.0°C (23°F) [RH = 52%]
Pressure (altimeter): 29.44 inches Hg (997.0 mb)
Winds: from the SE (140 degrees) at 15 MPH (13 knots; 6.7 m/s)
Visibility: 6 or more miles (10+ km)
Ceiling: 6000 feet AGL
Clouds: few clouds at 1800 feet AGL
scattered clouds at 3000 feet AGL
broken clouds at 6000 feet AGL
Weather: no significant weather observed at this time

METAR text: ENBR 221620Z 14013KT 9999 FEW018 SCT030 BKN040 04/M05 Q0998 NOSIG RMK WIND 1200FT 13030KT
Conditions at: ENBR (BERGEN/FLESLAND , NO) observed 1620 UTC 22 January 2019
Temperature: 4.0°C (39°F)
Dewpoint: -5.0°C (23°F) [RH = 52%]
Pressure (altimeter): 29.47 inches Hg (998.0 mb)
Winds: from the SE (140 degrees) at 15 MPH (13 knots; 6.7 m/s)
Visibility: 6 or more miles (10+ km)
Ceiling: 4000 feet AGL
Clouds: few clouds at 1800 feet AGL
scattered clouds at 3000 feet AGL
broken clouds at 4000 feet AGL
Weather: no significant weather observed at this time

METAR text: ENBR 221550Z 14015KT 9999 FEW019 SCT030 BKN040 04/M04 Q0998 NOSIG RMK WIND 1200FT 12034G46KT
Conditions at: ENBR (BERGEN/FLESLAND , NO) observed 1550 UTC 22 January 2019
Temperature: 4.0°C (39°F)
Dewpoint: -4.0°C (25°F) [RH = 56%]
Pressure (altimeter): 29.47 inches Hg (998.0 mb)
Winds: from the SE (140 degrees) at 17 MPH (15 knots; 7.7 m/s)
Visibility: 6 or more miles (10+ km)
Ceiling: 4000 feet AGL
Clouds: few clouds at 1900 feet AGL
scattered clouds at 3000 feet AGL
broken clouds at 4000 feet AGL
Weather: no significant weather observed at this time

METAR text: ENBR 221520Z 14013KT 9999 FEW020 SCT030 BKN040 04/M05 Q0998 NOSIG RMK WIND 1200FT 12031G45KT
Conditions at: ENBR (BERGEN/FLESLAND , NO) observed 1520 UTC 22 January 2019
Temperature: 4.0°C (39°F)
Dewpoint: -5.0°C (23°F) [RH = 52%]
Pressure (altimeter): 29.47 inches Hg (998.0 mb)
Winds: from the SE (140 degrees) at 15 MPH (13 knots; 6.7 m/s)
Visibility: 6 or more miles (10+ km)
Ceiling: 4000 feet AGL
Clouds: few clouds at 2000 feet AGL
scattered clouds at 3000 feet AGL
broken clouds at 4000 feet AGL
Weather: no significant weather observed at this time

METAR text: ENBR 221450Z 14015KT 9999 FEW020 BKN040 04/M04 Q0998 NOSIG RMK WIND 1200FT 12034G45KT
Conditions at: ENBR (BERGEN/FLESLAND , NO) observed 1450 UTC 22 January 2019
Temperature: 4.0°C (39°F)
Dewpoint: -4.0°C (25°F) [RH = 56%]
Pressure (altimeter): 29.47 inches Hg (998.0 mb)
Winds: from the SE (140 degrees) at 17 MPH (15 knots; 7.7 m/s)
Visibility: 6 or more miles (10+ km)
Ceiling: 4000 feet AGL
Clouds: few clouds at 2000 feet AGL
broken clouds at 4000 feet AGL
Weather: no significant weather observed at this time

METAR text: ENBR 221420Z 13010KT 080V170 9999 SCT020 BKN035 04/M05 Q0998 NOSIG RMK WIND 1200FT 13027KT
Conditions at: ENBR (BERGEN/FLESLAND , NO) observed 1420 UTC 22 January 2019
Temperature: 4.0°C (39°F)
Dewpoint: -5.0°C (23°F) [RH = 52%]
Pressure (altimeter): 29.47 inches Hg (998.0 mb)
Winds: from the SE (130 degrees) at 12 MPH (10 knots; 5.1 m/s)
Visibility: 6 or more miles (10+ km)
Ceiling: 3500 feet AGL
Clouds: scattered clouds at 2000 feet AGL
broken clouds at 3500 feet AGL
Weather: no significant weather observed at this time

METAR text: ENBR 221350Z 13010KT 9999 FEW035 SCT045 BKN055 04/M05 Q0998 NOSIG RMK WIND 1200FT 13028KT
Conditions at: ENBR (BERGEN/FLESLAND , NO) observed 1350 UTC 22 January 2019
Temperature: 4.0°C (39°F)
Dewpoint: -5.0°C (23°F) [RH = 52%]
Pressure (altimeter): 29.47 inches Hg (998.0 mb)
Winds: from the SE (130 degrees) at 12 MPH (10 knots; 5.1 m/s)
Visibility: 6 or more miles (10+ km)
Ceiling: 5500 feet AGL
Clouds: few clouds at 3500 feet AGL
scattered clouds at 4500 feet AGL
broken clouds at 5500 feet AGL
Weather: no significant weather observed at this time

METAR text: ENBR 221320Z 13012KT 9999 FEW021 BKN050 04/M04 Q0999 NOSIG RMK WIND 1200FT 13028KT
Conditions at: ENBR (BERGEN/FLESLAND , NO) observed 1320 UTC 22 January 2019
Temperature: 4.0°C (39°F)
Dewpoint: -4.0°C (25°F) [RH = 56%]
Pressure (altimeter): 29.50 inches Hg (999.0 mb)
Winds: from the SE (130 degrees) at 14 MPH (12 knots; 6.2 m/s)
Visibility: 6 or more miles (10+ km)
Ceiling: 5000 feet AGL
Clouds: few clouds at 2100 feet AGL
broken clouds at 5000 feet AGL
Weather: no significant weather observed at this time

METAR text: ENBR 221250Z 14012KT 9999 FEW020 BKN045 04/M04 Q0999 NOSIG RMK WIND 1200FT 13032KT
Conditions at: ENBR (BERGEN/FLESLAND , NO) observed 1250 UTC 22 January 2019
Temperature: 4.0°C (39°F)
Dewpoint: -4.0°C (25°F) [RH = 56%]
Pressure (altimeter): 29.50 inches Hg (999.0 mb)
Winds: from the SE (140 degrees) at 14 MPH (12 knots; 6.2 m/s)
Visibility: 6 or more miles (10+ km)
Ceiling: 4500 feet AGL
Clouds: few clouds at 2000 feet AGL
broken clouds at 4500 feet AGL
Weather: no significant weather observed at this time

METAR text: ENBR 221220Z 14012KT 9999 VCSH SCT020 BKN035 04/M04 Q0999 NOSIG RMK WIND 1200FT 13028KT
Conditions at: ENBR (BERGEN/FLESLAND , NO) observed 1220 UTC 22 January 2019
Temperature: 4.0°C (39°F)
Dewpoint: -4.0°C (25°F) [RH = 56%]
Pressure (altimeter): 29.50 inches Hg (999.0 mb)
Winds: from the SE (140 degrees) at 14 MPH (12 knots; 6.2 m/s)
Visibility: 6 or more miles (10+ km)
Ceiling: 3500 feet AGL
Clouds: scattered clouds at 2000 feet AGL
broken clouds at 3500 feet AGL
Weather: VCSH  (showers in vicinity)

METAR text: ENBR 221150Z 12011KT 9999 FEW025 SCT035 BKN055 04/M04 Q0999 NOSIG RMK WIND 1200FT 12023KT
Conditions at: ENBR (BERGEN/FLESLAND , NO) observed 1150 UTC 22 January 2019
Temperature: 4.0°C (39°F)
Dewpoint: -4.0°C (25°F) [RH = 56%]
Pressure (altimeter): 29.50 inches Hg (999.0 mb)
Winds: from the ESE (120 degrees) at 13 MPH (11 knots; 5.7 m/s)
Visibility: 6 or more miles (10+ km)
Ceiling: 5500 feet AGL
Clouds: few clouds at 2500 feet AGL
scattered clouds at 3500 feet AGL
broken clouds at 5500 feet AGL
Weather: no significant weather observed at this time

METAR text: ENBR 221120Z 13010KT 9999 SCT028 BKN045 04/M04 Q1000 NOSIG RMK WIND 1200FT 12021KT
Conditions at: ENBR (BERGEN/FLESLAND , NO) observed 1120 UTC 22 January 2019
Temperature: 4.0°C (39°F)
Dewpoint: -4.0°C (25°F) [RH = 56%]
Pressure (altimeter): 29.53 inches Hg (1000.0 mb)
Winds: from the SE (130 degrees) at 12 MPH (10 knots; 5.1 m/s)
Visibility: 6 or more miles (10+ km)
Ceiling: 4500 feet AGL
Clouds: scattered clouds at 2800 feet AGL
broken clouds at 4500 feet AGL
Weather: no significant weather observed at this time

METAR text: ENBR 221050Z 12010KT 9999 FEW035 BKN050 04/M04 Q1000 NOSIG RMK WIND 1200FT 12025KT
Conditions at: ENBR (BERGEN/FLESLAND , NO) observed 1050 UTC 22 January 2019
Temperature: 4.0°C (39°F)
Dewpoint: -4.0°C (25°F) [RH = 56%]
Pressure (altimeter): 29.53 inches Hg (1000.0 mb)
Winds: from the ESE (120 degrees) at 12 MPH (10 knots; 5.1 m/s)
Visibility: 6 or more miles (10+ km)
Ceiling: 5000 feet AGL
Clouds: few clouds at 3500 feet AGL
broken clouds at 5000 feet AGL
Weather: no significant weather observed at this time

METAR text: ENBR 221020Z 13011KT 070V170 9999 FEW030 BKN057 04/M03 Q1000 NOSIG RMK WIND 1200FT 13026KT
Conditions at: ENBR (BERGEN/FLESLAND , NO) observed 1020 UTC 22 January 2019
Temperature: 4.0°C (39°F)
Dewpoint: -3.0°C (27°F) [RH = 60%]
Pressure (altimeter): 29.53 inches Hg (1000.0 mb)
Winds: from the SE (130 degrees) at 13 MPH (11 knots; 5.7 m/s)
Visibility: 6 or more miles (10+ km)
Ceiling: 5700 feet AGL
Clouds: few clouds at 3000 feet AGL
broken clouds at 5700 feet AGL
Weather: no significant weather observed at this time

METAR text: ENBR 220950Z 13013KT 9999 FEW030 BKN060 03/M03 Q1000 NOSIG RMK WIND 1200FT 13026KT
Conditions at: ENBR (BERGEN/FLESLAND , NO) observed 0950 UTC 22 January 2019
Temperature: 3.0°C (37°F)
Dewpoint: -3.0°C (27°F) [RH = 65%]
Pressure (altimeter): 29.53 inches Hg (1000.0 mb)
Winds: from the SE (130 degrees) at 15 MPH (13 knots; 6.7 m/s)
Visibility: 6 or more miles (10+ km)
Ceiling: 6000 feet AGL
Clouds: few clouds at 3000 feet AGL
broken clouds at 6000 feet AGL
Weather: no significant weather observed at this time

METAR text: ENBR 220920Z 13011KT 9999 FEW030 BKN060 03/M03 Q1001 NOSIG RMK WIND 1200FT 13026KT
Conditions at: ENBR (BERGEN/FLESLAND , NO) observed 0920 UTC 22 January 2019
Temperature: 3.0°C (37°F)
Dewpoint: -3.0°C (27°F) [RH = 65%]
Pressure (altimeter): 29.56 inches Hg (1001.0 mb)
Winds: from the SE (130 degrees) at 13 MPH (11 knots; 5.7 m/s)
Visibility: 6 or more miles (10+ km)
Ceiling: 6000 feet AGL
Clouds: few clouds at 3000 feet AGL
broken clouds at 6000 feet AGL
Weather: no significant weather observed at this time

METAR text: ENBR 220850Z 13013KT 9999 FEW030 BKN055 03/M03 Q1001 NOSIG RMK WIND 1200FT 13029KT
Conditions at: ENBR (BERGEN/FLESLAND , NO) observed 0850 UTC 22 January 2019
Temperature: 3.0°C (37°F)
Dewpoint: -3.0°C (27°F) [RH = 65%]
Pressure (altimeter): 29.56 inches Hg (1001.0 mb)
Winds: from the SE (130 degrees) at 15 MPH (13 knots; 6.7 m/s)
Visibility: 6 or more miles (10+ km)
Ceiling: 5500 feet AGL
Clouds: few clouds at 3000 feet AGL
broken clouds at 5500 feet AGL
Weather: no significant weather observed at this time

METAR text: ENBR 220820Z 13012KT 9999 FEW025 BKN055 03/M02 Q1001 NOSIG RMK WIND 1200FT 13029KT
Conditions at: ENBR (BERGEN/FLESLAND , NO) observed 0820 UTC 22 January 2019
Temperature: 3.0°C (37°F)
Dewpoint: -2.0°C (28°F) [RH = 70%]
Pressure (altimeter): 29.56 inches Hg (1001.0 mb)
Winds: from the SE (130 degrees) at 14 MPH (12 knots; 6.2 m/s)
Visibility: 6 or more miles (10+ km)
Ceiling: 5500 feet AGL
Clouds: few clouds at 2500 feet AGL
broken clouds at 5500 feet AGL
Weather: no significant weather observed at this time

METAR text: ENBR 220750Z 14012KT 9999 FEW025 SCT045 BKN065 03/M02 Q1001 NOSIG RMK WIND 1200FT 13028KT
Conditions at: ENBR (BERGEN/FLESLAND , NO) observed 0750 UTC 22 January 2019
Temperature: 3.0°C (37°F)
Dewpoint: -2.0°C (28°F) [RH = 70%]
Pressure (altimeter): 29.56 inches Hg (1001.0 mb)
Winds: from the SE (140 degrees) at 14 MPH (12 knots; 6.2 m/s)
Visibility: 6 or more miles (10+ km)
Ceiling: 6500 feet AGL
Clouds: few clouds at 2500 feet AGL
scattered clouds at 4500 feet AGL
broken clouds at 6500 feet AGL
Weather: no significant weather observed at this time

METAR text: ENBR 220720Z 13015KT 9999 FEW025 SCT038 BKN065 03/M02 Q1001 NOSIG RMK WIND 1200FT 13027KT
Conditions at: ENBR (BERGEN/FLESLAND , NO) observed 0720 UTC 22 January 2019
Temperature: 3.0°C (37°F)
Dewpoint: -2.0°C (28°F) [RH = 70%]
Pressure (altimeter): 29.56 inches Hg (1001.0 mb)
Winds: from the SE (130 degrees) at 17 MPH (15 knots; 7.7 m/s)
Visibility: 6 or more miles (10+ km)
Ceiling: 6500 feet AGL
Clouds: few clouds at 2500 feet AGL
scattered clouds at 3800 feet AGL
broken clouds at 6500 feet AGL
Weather: no significant weather observed at this time

METAR text: ENBR 220650Z 13016KT 9999 FEW025 SCT045 BKN075 03/M02 Q1002 NOSIG RMK WIND 1200FT 13028KT
Conditions at: ENBR (BERGEN/FLESLAND , NO) observed 0650 UTC 22 January 2019
Temperature: 3.0°C (37°F)
Dewpoint: -2.0°C (28°F) [RH = 70%]
Pressure (altimeter): 29.59 inches Hg (1002.0 mb)
Winds: from the SE (130 degrees) at 18 MPH (16 knots; 8.2 m/s)
Visibility: 6 or more miles (10+ km)
Ceiling: 7500 feet AGL
Clouds: few clouds at 2500 feet AGL
scattered clouds at 4500 feet AGL
broken clouds at 7500 feet AGL
Weather: no significant weather observed at this time

METAR text: ENBR 220620Z 13014KT 9999 FEW025 SCT050 BKN070 02/M02 Q1002 NOSIG RMK WIND 1200FT 13030KT
Conditions at: ENBR (BERGEN/FLESLAND , NO) observed 0620 UTC 22 January 2019
Temperature: 2.0°C (36°F)
Dewpoint: -2.0°C (28°F) [RH = 75%]
Pressure (altimeter): 29.59 inches Hg (1002.0 mb)
Winds: from the SE (130 degrees) at 16 MPH (14 knots; 7.2 m/s)
Visibility: 6 or more miles (10+ km)
Ceiling: 7000 feet AGL
Clouds: few clouds at 2500 feet AGL
scattered clouds at 5000 feet AGL
broken clouds at 7000 feet AGL
Weather: no significant weather observed at this time

METAR text: ENBR 220550Z 14014KT 9999 FEW024 SCT050 BKN075 02/M02 Q1002 NOSIG RMK WIND 1200FT 13031KT
Conditions at: ENBR (BERGEN/FLESLAND , NO) observed 0550 UTC 22 January 2019
Temperature: 2.0°C (36°F)
Dewpoint: -2.0°C (28°F) [RH = 75%]
Pressure (altimeter): 29.59 inches Hg (1002.0 mb)
Winds: from the SE (140 degrees) at 16 MPH (14 knots; 7.2 m/s)
Visibility: 6 or more miles (10+ km)
Ceiling: 7500 feet AGL
Clouds: few clouds at 2400 feet AGL
scattered clouds at 5000 feet AGL
broken clouds at 7500 feet AGL
Weather: no significant weather observed at this time

METAR text: ENBR 220520Z 13014KT 9999 FEW024 SCT055 BKN080 02/M02 Q1002 NOSIG RMK WIND 1200FT 13030KT
Conditions at: ENBR (BERGEN/FLESLAND , NO) observed 0520 UTC 22 January 2019
Temperature: 2.0°C (36°F)
Dewpoint: -2.0°C (28°F) [RH = 75%]
Pressure (altimeter): 29.59 inches Hg (1002.0 mb)
Winds: from the SE (130 degrees) at 16 MPH (14 knots; 7.2 m/s)
Visibility: 6 or more miles (10+ km)
Ceiling: 8000 feet AGL
Clouds: few clouds at 2400 feet AGL
scattered clouds at 5500 feet AGL
broken clouds at 8000 feet AGL
Weather: no significant weather observed at this time

METAR text: ENBR 220450Z 13014KT 9999 FEW020 BKN030 02/M02 Q1003 RMK WIND 1200FT 13028KT
Conditions at: ENBR (BERGEN/FLESLAND , NO) observed 0450 UTC 22 January 2019
Temperature: 2.0°C (36°F)
Dewpoint: -2.0°C (28°F) [RH = 75%]
Pressure (altimeter): 29.62 inches Hg (1003.0 mb)
Winds: from the SE (130 degrees) at 16 MPH (14 knots; 7.2 m/s)
Visibility: 6 or more miles (10+ km)
Ceiling: 3000 feet AGL
Clouds: few clouds at 2000 feet AGL
broken clouds at 3000 feet AGL
Weather: no significant weather observed at this time

Forecast for: ENBR (BERGEN/FLESLAND , NO)
Text: TAF ENBR 2312/2412 15008KT 9999 FEW020 BKN035
Forecast period: 1200 UTC 23 January 2019 to 1200 UTC 24 January 2019
Forecast type: FROM: standard forecast or significant change
Winds: from the SSE (150 degrees) at 9 MPH (8 knots; 4.1 m/s)
Visibility: 6 or more miles 10+ km)
Ceiling: 3500 feet AGL
Clouds: few clouds at 2000 feet AGL
broken clouds at 3500 feet AGL
Weather: no significant weather forecast for this period
Text: TEMPO 2312/2412 17015G25KT
Forecast period: 1200 UTC 23 January 2019 to 1200 UTC 24 January 2019
Forecast type: TEMPORARY: The following changes expected for less than half the time period
Winds: from the S (170 degrees) at 17 MPH (15 knots; 7.7 m/s)
gusting to 29 MPH (25 knots; 12.9 m/s)
Visibility: missing
Ceiling: unknown
Clouds: missing
Weather: no significant weather forecast for this period
Text: PROB30
Forecast period: 1200 UTC 23 January 2019 to 0600 UTC 24 January 2019
Forecast type: TEMPORARY: The following changes expected for less than half the time period
Visibility: 1.86 miles (2.99 km)
Ceiling: indefinite ceiling with vertical visibility of 900 feet AGL
Clouds: obscured sky
Weather: -SN -RA  (light snow, light rain)